Time;durP1;ratioP1;P1;durP2;ratioP2;P2;SDS_P1;SDS_P2;PMS_P1;PMS_P2;Temp;Humidity;BMP_temperature;BMP_pressure;BME280_temperature;BME280_humidity;BME280_pressure;Samples;Min_cycle;Max_cycle;Signal;HPM_P1;HPM_P2
2023/04/16 00:00:06;;;;;;;12.27;7.88;;;;;;;8.45;90.74;102048.16;5095279;28;20110;-58
2023/04/16 00:02:32;;;;;;;12.55;7.70;;;;;;;8.64;90.88;102048.34;5095036;28;20441;-59
2023/04/16 00:04:57;;;;;;;13.10;7.47;;;;;;;8.80;90.67;102046.03;5104933;28;20093;-59
2023/04/16 00:07:25;;;;;;;11.77;7.95;;;;;;;8.71;89.90;102046.38;5104654;28;20111;-59
2023/04/16 00:09:50;;;;;;;11.05;7.70;;;;;;;8.58;90.22;102030.00;5095436;28;20028;-59
2023/04/16 00:12:16;;;;;;;11.45;8.18;;;;;;;8.87;89.62;102050.19;5095549;28;20035;-59
2023/04/16 00:14:42;;;;;;;11.50;8.45;;;;;;;8.82;89.68;102052.13;5110432;28;20057;-59
2023/04/16 00:17:08;;;;;;;10.95;7.53;;;;;;;8.85;89.74;102041.41;5083500;28;20024;-59
2023/04/16 00:19:34;;;;;;;11.20;7.82;;;;;;;8.81;89.57;102048.63;5095409;28;20116;-59
2023/04/16 00:22:00;;;;;;;9.98;7.82;;;;;;;8.79;89.30;102038.97;5112108;28;20505;-59
2023/04/16 00:24:25;;;;;;;11.13;7.40;;;;;;;8.75;89.93;102043.53;5094904;28;20391;-59
2023/04/16 00:26:50;;;;;;;11.25;7.97;;;;;;;8.60;90.15;102044.09;5095147;28;20024;-59
2023/04/16 00:29:16;;;;;;;10.52;8.20;;;;;;;8.68;89.69;102052.66;5094723;28;20157;-59
2023/04/16 00:31:41;;;;;;;11.73;8.23;;;;;;;8.75;90.39;102042.66;5094555;28;20042;-59
2023/04/16 00:34:07;;;;;;;12.35;8.10;;;;;;;8.60;90.16;102052.91;5094879;28;20032;-59
2023/04/16 00:36:32;;;;;;;12.82;8.35;;;;;;;8.64;90.49;102045.69;5094673;28;20505;-59
2023/04/16 00:39:00;;;;;;;9.30;7.40;;;;;;;8.67;90.56;102050.88;5093650;28;20024;-59
2023/04/16 00:41:26;;;;;;;12.40;7.95;;;;;;;8.59;91.02;102047.66;5094281;28;20031;-59
2023/04/16 00:43:52;;;;;;;13.20;8.18;;;;;;;8.71;90.74;102051.66;5094543;28;20024;-59
2023/04/16 00:46:22;;;;;;;16.15;8.95;;;;;;;8.70;91.10;102049.91;5093923;28;20024;-59
2023/04/16 00:48:49;;;;;;;16.02;8.57;;;;;;;8.81;90.12;102038.00;5094579;28;20032;-59
2023/04/16 00:51:17;;;;;;;12.45;8.00;;;;;;;8.71;90.68;102033.97;5094407;28;20024;-59
2023/04/16 00:53:44;;;;;;;13.05;9.32;;;;;;;8.67;91.09;102048.25;5094572;28;20141;-59
2023/04/16 00:56:10;;;;;;;11.50;8.18;;;;;;;8.71;90.89;102047.22;5094285;28;20032;-59
2023/04/16 00:58:36;;;;;;;13.98;9.20;;;;;;;8.61;91.18;102043.16;5093905;28;20035;-59
2023/04/16 01:01:02;;;;;;;14.07;9.32;;;;;;;8.59;91.30;102031.75;5093705;28;20059;-59
2023/04/16 01:03:38;;;;;;;15.95;9.05;;;;;;;8.58;92.16;102043.25;5093025;28;20081;-59
2023/04/16 01:06:06;;;;;;;11.63;9.55;;;;;;;8.57;92.13;102045.06;5094404;28;20023;-59
2023/04/16 01:08:32;;;;;;;14.27;9.07;;;;;;;8.53;92.05;102039.91;5093110;28;20463;-59
2023/04/16 01:10:57;;;;;;;13.52;8.95;;;;;;;8.55;91.71;102019.50;5076143;28;20028;-59
2023/04/16 01:13:23;;;;;;;11.40;9.45;;;;;;;8.63;91.85;102042.19;5093909;28;20115;-59
2023/04/16 01:15:48;;;;;;;12.50;9.48;;;;;;;8.64;91.73;102032.44;5093430;28;20114;-59
2023/04/16 01:18:18;;;;;;;11.13;8.95;;;;;;;8.64;92.24;102045.69;5094183;28;20024;-59
2023/04/16 01:20:45;;;;;;;13.90;9.10;;;;;;;8.58;92.18;102009.66;5092662;28;20503;-59
2023/04/16 01:23:10;;;;;;;12.27;9.23;;;;;;;8.70;92.28;102034.00;5094152;28;20494;-59
2023/04/16 01:25:36;;;;;;;11.82;9.57;;;;;;;8.58;92.13;102036.16;5092630;28;20024;-59
2023/04/16 01:28:01;;;;;;;14.32;9.57;;;;;;;8.75;92.07;102035.56;5093849;28;20028;-59
2023/04/16 01:30:27;;;;;;;15.02;8.90;;;;;;;8.73;92.18;102039.19;5093271;28;20028;-59
2023/04/16 01:32:52;;;;;;;15.07;9.57;;;;;;;8.84;91.90;102029.94;5093775;28;20379;-59
2023/04/16 01:35:18;;;;;;;12.23;10.25;;;;;;;8.82;92.17;102033.56;5093602;28;20099;-59
2023/04/16 01:37:43;;;;;;;15.15;10.50;;;;;;;8.73;92.19;102050.66;5092338;28;20056;-59
2023/04/16 01:40:11;;;;;;;13.23;10.77;;;;;;;8.69;92.60;102043.75;5092225;28;20035;-59
2023/04/16 01:42:37;;;;;;;15.48;10.13;;;;;;;8.73;92.79;102052.47;5093062;28;20024;-59
2023/04/16 01:45:04;;;;;;;15.20;9.63;;;;;;;8.78;92.53;102042.56;5093527;28;20023;-59
2023/04/16 01:47:29;;;;;;;12.02;9.90;;;;;;;8.80;92.30;102051.34;5092961;28;20491;-59
2023/04/16 01:49:55;;;;;;;15.38;10.45;;;;;;;8.57;93.24;102042.41;5093269;28;20028;-59
2023/04/16 01:52:20;;;;;;;15.13;11.23;;;;;;;8.66;93.41;102053.63;5093099;28;20028;-59
2023/04/16 01:54:46;;;;;;;15.20;10.00;;;;;;;8.59;94.08;102039.72;5095555;28;20024;-59
2023/04/16 01:57:11;;;;;;;16.88;10.43;;;;;;;8.61;93.49;102041.38;5111400;28;20053;-59
2023/04/16 01:59:36;;;;;;;14.57;11.32;;;;;;;8.57;94.04;102037.09;5102580;28;20043;-59
2023/04/16 02:02:13;;;;;;;12.93;10.98;;;;;;;8.73;93.56;102050.66;5092886;28;20020;-59
2023/04/16 02:04:40;;;;;;;16.05;11.25;;;;;;;8.77;93.63;102047.00;5093361;28;20576;-59
2023/04/16 02:07:07;;;;;;;18.00;10.98;;;;;;;8.76;93.83;102047.03;5093115;28;20051;-59
2023/04/16 02:09:37;;;;;;;13.50;10.23;;;;;;;8.82;93.48;102041.50;5093085;28;20028;-59
2023/04/16 02:12:03;;;;;;;15.55;11.50;;;;;;;8.63;94.09;102036.88;5091097;28;20406;-59
2023/04/16 02:14:32;;;;;;;12.30;10.95;;;;;;;8.69;93.69;102034.94;5093048;28;20028;-59
2023/04/16 02:16:58;;;;;;;17.83;11.77;;;;;;;8.81;94.03;102043.31;5091343;28;20038;-59
2023/04/16 02:19:26;;;;;;;16.10;11.55;;;;;;;8.74;93.86;102033.00;5092967;28;20028;-59
2023/04/16 02:21:52;;;;;;;12.73;11.18;;;;;;;8.84;94.12;102045.84;5092818;28;20020;-59
2023/04/16 02:24:18;;;;;;;15.27;11.13;;;;;;;8.79;94.04;102038.97;5092589;28;20020;-59
2023/04/16 02:26:46;;;;;;;14.90;11.25;;;;;;;8.67;94.98;102034.13;5092505;28;20028;-59
2023/04/16 02:29:12;;;;;;;15.57;11.18;;;;;;;8.78;95.07;102045.22;5102492;28;20024;-59
2023/04/16 02:31:37;;;;;;;16.20;12.15;;;;;;;8.63;95.03;102026.28;5111399;28;20024;-59
2023/04/16 02:34:04;;;;;;;13.23;11.00;;;;;;;8.71;95.01;102039.28;5111954;28;20489;-59
2023/04/16 02:36:30;;;;;;;14.07;10.73;;;;;;;8.72;95.27;102046.28;5109044;28;20055;-59
2023/04/16 02:38:57;;;;;;;12.32;11.15;;;;;;;8.66;95.36;102038.56;5092819;28;20077;-59
2023/04/16 02:41:22;;;;;;;14.02;11.15;;;;;;;8.64;95.50;102041.25;5108272;28;20281;-59
2023/04/16 02:43:47;;;;;;;14.23;11.80;;;;;;;8.49;96.21;102040.94;5109010;28;20382;-59
2023/04/16 02:46:13;;;;;;;18.42;11.35;;;;;;;8.60;96.58;102044.94;5112320;28;20027;-59
2023/04/16 02:48:39;;;;;;;14.70;11.82;;;;;;;8.58;96.69;102030.88;5111343;28;20117;-59
2023/04/16 02:51:04;;;;;;;15.15;11.95;;;;;;;8.59;96.18;102045.03;5111322;28;20030;-59
2023/04/16 02:53:30;;;;;;;16.30;11.88;;;;;;;8.60;96.67;102046.75;5110247;28;20027;-59
2023/04/16 02:55:55;;;;;;;13.10;11.52;;;;;;;8.57;96.69;102060.09;5110374;28;20363;-59
2023/04/16 02:58:23;;;;;;;16.92;12.18;;;;;;;8.55;96.83;102053.97;5110130;28;20106;-59
2023/04/16 03:00:49;;;;;;;16.80;11.38;;;;;;;8.63;96.66;102057.22;5110311;28;20043;-59
2023/04/16 03:03:15;;;;;;;15.15;12.27;;;;;;;8.55;97.14;102057.50;5108824;28;20036;-59
2023/04/16 03:05:40;;;;;;;16.05;12.27;;;;;;;8.61;97.06;102061.72;5112359;28;20034;-59
2023/04/16 03:08:06;;;;;;;14.80;12.40;;;;;;;8.67;96.40;102057.97;5110504;28;20031;-59
2023/04/16 03:10:31;;;;;;;17.80;12.88;;;;;;;8.69;96.89;102059.66;5109351;28;20081;-59
2023/04/16 03:12:57;;;;;;;15.35;12.48;;;;;;;8.53;97.34;102054.06;5111184;28;20023;-59
2023/04/16 03:15:24;;;;;;;15.02;13.20;;;;;;;8.68;97.21;102065.00;5109498;28;20027;-59
2023/04/16 03:17:49;;;;;;;16.00;12.43;;;;;;;8.63;96.98;102067.84;5108789;28;20034;-59
2023/04/16 03:20:18;;;;;;;16.20;13.55;;;;;;;8.69;96.95;102067.63;5110722;28;20382;-59
2023/04/16 03:22:43;;;;;;;17.60;14.00;;;;;;;8.78;96.51;102071.75;5107740;28;20028;-59
2023/04/16 03:25:08;;;;;;;17.20;13.60;;;;;;;8.75;96.30;102071.84;5110966;28;20028;-59
2023/04/16 03:27:34;;;;;;;18.42;14.70;;;;;;;8.67;96.47;102063.28;5110418;28;20027;-59
2023/04/16 03:30:01;;;;;;;17.40;14.15;;;;;;;8.63;96.90;102068.72;5109889;28;20031;-58
2023/04/16 03:32:26;;;;;;;17.42;15.00;;;;;;;8.52;97.36;102070.88;5111467;28;20028;-58
2023/04/16 03:34:52;;;;;;;18.77;14.93;;;;;;;8.57;97.46;102071.56;5109567;28;20043;-59
2023/04/16 03:37:17;;;;;;;17.90;15.13;;;;;;;8.59;97.50;102075.06;5109106;28;20023;-59
2023/04/16 03:39:43;;;;;;;18.80;16.85;;;;;;;8.43;97.62;102071.19;5103708;28;20027;-59
2023/04/16 03:42:10;;;;;;;18.45;16.08;;;;;;;8.53;97.92;102075.25;5091474;28;20020;-59
2023/04/16 03:44:35;;;;;;;17.70;15.95;;;;;;;8.44;97.74;102064.94;5090185;28;20047;-59
2023/04/16 03:47:01;;;;;;;19.98;17.08;;;;;;;8.58;97.56;102072.44;5090027;28;20571;-59
2023/04/16 03:49:26;;;;;;;18.13;16.35;;;;;;;8.61;97.15;102072.31;5091422;28;20017;-59
2023/04/16 03:51:52;;;;;;;18.92;16.95;;;;;;;8.59;97.42;102072.41;5091138;28;20506;-59
2023/04/16 03:54:17;;;;;;;19.45;17.42;;;;;;;8.62;97.47;102080.25;5090270;28;20059;-59
2023/04/16 03:56:43;;;;;;;21.10;18.92;;;;;;;8.61;97.03;102072.31;5091333;28;20382;-58
2023/04/16 03:59:09;;;;;;;20.77;18.65;;;;;;;8.56;97.54;102068.97;5091706;28;20524;-59
2023/04/16 04:01:34;;;;;;;23.92;20.27;;;;;;;8.46;98.13;102068.41;5089493;28;20040;-59
2023/04/16 04:04:00;;;;;;;26.90;20.25;;;;;;;8.39;98.00;102064.25;5091797;28;20425;-59
2023/04/16 04:06:26;;;;;;;22.17;19.40;;;;;;;8.44;98.30;102074.69;5089620;28;20043;-59
2023/04/16 04:08:52;;;;;;;21.35;19.13;;;;;;;8.34;98.37;102068.81;5091532;28;20031;-59
2023/04/16 04:11:17;;;;;;;22.58;19.85;;;;;;;8.38;98.91;102068.72;5091364;28;20046;-59
2023/04/16 04:13:43;;;;;;;21.73;19.67;;;;;;;8.30;99.13;102073.38;5091545;28;20016;-59
2023/04/16 04:16:08;;;;;;;22.48;20.25;;;;;;;8.38;99.27;102068.72;5090926;28;20471;-59
2023/04/16 04:18:34;;;;;;;22.27;19.70;;;;;;;8.36;99.36;102070.50;5090142;28;20106;-59
2023/04/16 04:21:03;;;;;;;21.10;18.83;;;;;;;8.44;98.94;102072.03;5093545;28;20059;-59
2023/04/16 04:23:31;;;;;;;21.58;18.30;;;;;;;8.35;98.67;102070.53;5094031;28;20034;-59
2023/04/16 04:25:56;;;;;;;21.10;18.88;;;;;;;8.32;99.54;102070.66;5095173;28;20015;-59
2023/04/16 04:28:22;;;;;;;22.38;18.45;;;;;;;8.40;99.44;102080.09;5095142;28;20020;-59
2023/04/16 04:30:47;;;;;;;21.13;18.23;;;;;;;8.31;99.51;102066.28;5094556;28;20102;-59
2023/04/16 04:33:12;;;;;;;22.40;18.80;;;;;;;8.39;99.94;102078.38;5095043;28;20024;-59
2023/04/16 04:35:38;;;;;;;21.30;18.13;;;;;;;8.41;99.60;102088.91;5094383;28;20038;-59
2023/04/16 04:38:03;;;;;;;26.85;18.83;;;;;;;8.33;99.80;102078.56;5095056;28;20028;-59
2023/04/16 04:40:29;;;;;;;20.23;18.15;;;;;;;8.35;99.64;102079.38;5094676;28;20055;-59
2023/04/16 04:42:54;;;;;;;23.48;18.27;;;;;;;8.29;99.78;102078.69;5094895;28;20056;-59
2023/04/16 04:45:20;;;;;;;23.65;18.13;;;;;;;8.31;99.93;102090.13;5092972;28;20016;-59
2023/04/16 04:47:45;;;;;;;20.83;18.15;;;;;;;8.43;99.81;102091.53;5093355;28;20020;-59
2023/04/16 04:50:11;;;;;;;22.70;18.70;;;;;;;8.39;99.60;102088.13;5094277;28;20020;-59
2023/04/16 04:52:39;;;;;;;22.67;18.73;;;;;;;8.36;99.72;102094.34;5093090;28;20032;-59
2023/04/16 04:55:04;;;;;;;22.55;19.13;;;;;;;8.28;99.94;102076.97;5094454;28;20074;-59
2023/04/16 04:57:30;;;;;;;26.23;18.63;;;;;;;8.26;100.00;102084.97;5094344;28;20032;-59
2023/04/16 04:59:55;;;;;;;24.15;19.10;;;;;;;8.31;100.00;102087.47;5094320;28;20044;-59
2023/04/16 05:02:23;;;;;;;29.98;20.10;;;;;;;8.29;100.00;102092.81;5093752;28;20487;-59
2023/04/16 05:04:48;;;;;;;23.13;19.17;;;;;;;8.39;100.00;102086.34;5094065;28;20074;-59
2023/04/16 05:07:14;;;;;;;23.27;19.35;;;;;;;8.44;99.70;102086.16;5094400;28;20020;-59
2023/04/16 05:09:40;;;;;;;28.23;19.75;;;;;;;8.34;99.75;102088.22;5094252;28;20360;-59
2023/04/16 05:12:05;;;;;;;23.67;18.73;;;;;;;8.43;100.00;102097.69;5092773;28;20021;-59
2023/04/16 05:14:33;;;;;;;27.42;19.50;;;;;;;8.38;100.00;102099.59;5094051;28;20524;-59
2023/04/16 05:16:59;;;;;;;24.02;19.13;;;;;;;8.29;100.00;102102.56;5092532;28;20012;-59
2023/04/16 05:19:24;;;;;;;22.35;18.67;;;;;;;8.28;100.00;102098.19;5092496;28;20070;-59
2023/04/16 05:21:50;;;;;;;26.35;19.42;;;;;;;8.24;100.00;102101.88;5093984;28;20079;-59
2023/04/16 05:24:15;;;;;;;27.65;19.58;;;;;;;8.25;100.00;102111.53;5092848;28;20016;-59
2023/04/16 05:26:40;;;;;;;27.27;19.63;;;;;;;8.20;100.00;102098.44;5093761;28;20020;-59
2023/04/16 05:29:06;;;;;;;26.05;19.00;;;;;;;8.28;100.00;102108.78;5094054;28;20020;-59
2023/04/16 05:31:34;;;;;;;20.42;18.30;;;;;;;8.33;100.00;102110.38;5091049;28;20051;-59
2023/04/16 05:34:02;;;;;;;27.40;19.02;;;;;;;8.34;100.00;102111.22;5093585;28;20099;-59
2023/04/16 05:36:27;;;;;;;24.60;18.50;;;;;;;8.40;100.00;102106.63;5092419;28;20089;-58
2023/04/16 05:38:53;;;;;;;26.00;20.30;;;;;;;8.28;100.00;102109.66;5093838;28;20479;-58
2023/04/16 05:41:18;;;;;;;27.00;19.25;;;;;;;8.32;100.00;102115.69;5093543;28;20051;-59
2023/04/16 05:43:44;;;;;;;25.63;19.20;;;;;;;8.31;100.00;102125.44;5093279;28;20102;-59
2023/04/16 05:46:09;;;;;;;25.67;19.17;;;;;;;8.29;100.00;102131.72;5092665;28;20047;-59
2023/04/16 05:48:35;;;;;;;25.80;20.02;;;;;;;8.24;100.00;102129.22;5091498;28;20024;-59
2023/04/16 05:51:01;;;;;;;24.10;19.40;;;;;;;8.26;100.00;102129.16;5092061;28;20024;-59
2023/04/16 05:53:29;;;;;;;26.13;19.33;;;;;;;8.28;100.00;102124.69;5093268;28;20028;-59
2023/04/16 05:55:54;;;;;;;29.35;19.80;;;;;;;8.26;100.00;102135.31;5090903;28;20098;-59
2023/04/16 05:58:20;;;;;;;26.05;20.10;;;;;;;8.23;100.00;102130.13;5110660;28;20023;-59
2023/04/16 06:00:45;;;;;;;23.10;18.35;;;;;;;8.12;100.00;102133.16;5093744;28;20067;-59
2023/04/16 06:03:11;;;;;;;25.67;19.08;;;;;;;8.21;100.00;102142.59;5098361;28;20029;-59
2023/04/16 06:05:36;;;;;;;25.73;19.70;;;;;;;8.30;100.00;102138.78;5109765;28;20483;-58
2023/04/16 06:08:01;;;;;;;29.83;20.00;;;;;;;8.21;100.00;102139.94;5095618;28;20020;-59
2023/04/16 06:10:27;;;;;;;23.48;18.95;;;;;;;8.20;100.00;102138.19;5093043;28;20027;-59
2023/04/16 06:12:52;;;;;;;31.50;21.08;;;;;;;8.24;100.00;102139.84;5091735;28;20020;-59
2023/04/16 06:15:18;;;;;;;25.25;18.35;;;;;;;8.27;100.00;102145.03;5095648;28;20039;-59
2023/04/16 06:17:43;;;;;;;34.10;22.15;;;;;;;8.24;100.00;102141.63;5092513;28;20020;-59
2023/04/16 06:20:10;;;;;;;30.30;21.25;;;;;;;8.25;100.00;102146.00;5092850;28;20379;-59
2023/04/16 06:22:35;;;;;;;28.67;21.08;;;;;;;8.29;100.00;102143.19;5092402;28;20106;-59
2023/04/16 06:25:00;;;;;;;33.45;21.42;;;;;;;8.30;100.00;102147.59;5091843;28;20043;-58
2023/04/16 06:27:26;;;;;;;27.38;20.77;;;;;;;8.36;100.00;102142.06;5091430;28;20023;-59
2023/04/16 06:29:51;;;;;;;29.98;19.73;;;;;;;8.37;100.00;102141.16;5091560;28;20110;-59
2023/04/16 06:32:17;;;;;;;29.80;20.38;;;;;;;8.36;100.00;102147.38;5091807;28;20379;-59
2023/04/16 06:34:43;;;;;;;30.67;20.75;;;;;;;8.46;100.00;102152.41;5095622;28;20024;-59
2023/04/16 06:37:08;;;;;;;27.90;19.42;;;;;;;8.48;100.00;102146.13;5097941;28;20498;-59
2023/04/16 06:39:33;;;;;;;28.48;19.92;;;;;;;8.44;100.00;102155.09;5098628;28;20023;-59
2023/04/16 06:42:00;;;;;;;27.20;20.73;;;;;;;8.37;100.00;102153.53;5095614;28;20508;-59
2023/04/16 06:44:28;;;;;;;25.67;20.25;;;;;;;8.39;100.00;102159.69;5090874;28;20460;-59
2023/04/16 06:46:53;;;;;;;23.75;20.50;;;;;;;8.38;100.00;102163.22;5098284;28;20498;-59
2023/04/16 06:49:19;;;;;;;29.77;19.95;;;;;;;8.38;100.00;102161.50;5095859;28;20057;-59
2023/04/16 06:51:44;;;;;;;21.40;19.10;;;;;;;8.52;100.00;102168.97;5091987;28;20035;-59
2023/04/16 06:54:10;;;;;;;29.15;19.80;;;;;;;8.40;100.00;102170.25;5091992;28;20039;-59
2023/04/16 06:56:36;;;;;;;28.15;19.92;;;;;;;8.45;100.00;102174.53;5091567;28;20024;-58
2023/04/16 06:59:03;;;;;;;25.52;19.13;;;;;;;8.44;100.00;102178.09;5092206;28;20100;-59
2023/04/16 07:01:32;;;;;;;28.00;19.95;;;;;;;8.49;100.00;102177.03;5082135;28;20056;-59
2023/04/16 07:03:57;;;;;;;27.92;20.58;;;;;;;8.46;100.00;102163.00;5080371;28;20020;-59
2023/04/16 07:06:22;;;;;;;25.13;19.40;;;;;;;8.55;100.00;102184.78;5090202;28;20028;-59
2023/04/16 07:08:48;;;;;;;25.33;19.95;;;;;;;8.55;100.00;102192.72;5095544;28;20011;-59
2023/04/16 07:11:14;;;;;;;26.38;21.08;;;;;;;8.51;100.00;102187.59;5090376;28;20382;-59
2023/04/16 07:13:39;;;;;;;32.55;22.08;;;;;;;8.44;100.00;102188.69;5091370;28;20048;-59
2023/04/16 07:16:05;;;;;;;28.88;19.75;;;;;;;8.56;100.00;102190.94;5089590;28;20035;-59
2023/04/16 07:18:30;;;;;;;30.00;21.38;;;;;;;8.59;100.00;102196.16;5092295;28;20113;-59
2023/04/16 07:20:56;;;;;;;29.65;22.13;;;;;;;8.60;100.00;102200.53;5092001;28;20028;-59
2023/04/16 07:23:21;;;;;;;28.77;22.25;;;;;;;8.57;100.00;102204.16;5090332;28;20028;-59
2023/04/16 07:25:47;;;;;;;31.73;22.67;;;;;;;8.59;100.00;102193.53;5094272;28;20077;-59
2023/04/16 07:28:12;;;;;;;33.08;22.52;;;;;;;8.55;100.00;102203.34;5109360;28;20096;-59
2023/04/16 07:30:38;;;;;;;34.42;23.25;;;;;;;8.54;100.00;102212.22;5111026;28;20106;-59
2023/04/16 07:33:03;;;;;;;31.83;22.75;;;;;;;8.61;100.00;102208.44;5101709;28;20092;-59
2023/04/16 07:35:31;;;;;;;32.00;24.23;;;;;;;8.68;100.00;102209.13;5091395;28;20111;-59
2023/04/16 07:37:59;;;;;;;32.47;24.00;;;;;;;8.54;100.00;102204.25;5091528;28;20027;-59
2023/04/16 07:40:25;;;;;;;36.28;23.33;;;;;;;8.60;100.00;102217.31;5091303;28;20425;-59
2023/04/16 07:42:51;;;;;;;35.47;22.23;;;;;;;8.61;100.00;102212.88;5091485;28;20016;-59
2023/04/16 07:45:17;;;;;;;34.72;24.63;;;;;;;8.51;100.00;102217.63;5090958;28;20031;-59
2023/04/16 07:47:44;;;;;;;40.50;25.05;;;;;;;8.49;100.00;102211.50;5110259;28;20019;-59
2023/04/16 07:50:12;;;;;;;32.15;24.15;;;;;;;8.63;100.00;102213.72;5109033;28;20420;-59
2023/04/16 07:52:41;;;;;;;34.42;24.13;;;;;;;8.60;100.00;102216.47;5109318;28;20023;-59
2023/04/16 07:55:07;;;;;;;33.05;22.33;;;;;;;8.69;100.00;102220.59;5109017;28;20034;-59
2023/04/16 07:57:33;;;;;;;30.70;23.90;;;;;;;8.72;100.00;102231.09;5112937;28;20027;-59
2023/04/16 08:00:00;;;;;;;40.78;25.48;;;;;;;8.70;100.00;102230.28;5114418;28;20058;-59
2023/04/16 08:02:26;;;;;;;37.03;25.25;;;;;;;8.67;100.00;102227.72;5107999;28;20040;-59
2023/04/16 08:04:51;;;;;;;39.38;26.27;;;;;;;8.62;100.00;102239.38;5114782;28;20913;-59
2023/04/16 08:07:17;;;;;;;39.70;24.50;;;;;;;8.54;100.00;102230.78;5115569;28;20027;-59
2023/04/16 08:09:50;;;;;;;35.47;25.42;;;;;;;8.60;100.00;102237.66;5112271;28;20067;-59
2023/04/16 08:12:16;;;;;;;36.97;24.02;;;;;;;8.73;100.00;102240.78;5108918;28;20033;-59
2023/04/16 08:14:43;;;;;;;35.75;24.75;;;;;;;8.59;100.00;102234.16;5115283;28;20538;-59
2023/04/16 08:17:09;;;;;;;36.20;25.85;;;;;;;8.73;100.00;102239.00;5112389;28;20024;-59
2023/04/16 08:19:35;;;;;;;39.42;25.38;;;;;;;8.73;100.00;102230.16;5110610;28;20115;-59
2023/04/16 08:22:00;;;;;;;39.88;27.17;;;;;;;8.81;100.00;102255.53;5112933;28;20488;-59
2023/04/16 08:24:26;;;;;;;40.03;26.52;;;;;;;8.78;100.00;102250.31;5106057;28;20457;-59
2023/04/16 08:26:53;;;;;;;35.00;24.92;;;;;;;8.85;100.00;102256.28;5094717;28;20431;-59
2023/04/16 08:29:19;;;;;;;43.95;26.65;;;;;;;8.74;100.00;102250.50;5094744;28;20107;-59
2023/04/16 08:31:45;;;;;;;42.15;27.02;;;;;;;8.84;100.00;102259.88;5094445;28;20078;-59
2023/04/16 08:34:11;;;;;;;37.65;25.85;;;;;;;8.97;100.00;102260.31;5094947;28;20123;-59
2023/04/16 08:36:41;;;;;;;34.90;25.85;;;;;;;8.87;100.00;102263.28;5094749;28;20102;-59
2023/04/16 08:39:07;;;;;;;35.42;24.10;;;;;;;9.07;100.00;102265.28;5094646;28;20031;-59
2023/04/16 08:41:36;;;;;;;41.00;25.83;;;;;;;9.01;100.00;102268.13;5093932;28;20073;-59
2023/04/16 08:44:07;;;;;;;37.47;25.35;;;;;;;8.96;100.00;102264.75;5090761;28;20800;-59
2023/04/16 08:46:36;;;;;;;45.28;27.83;;;;;;;8.99;100.00;102271.75;5096751;28;20024;-59
2023/04/16 08:49:04;;;;;;;43.50;28.67;;;;;;;8.89;100.00;102262.38;5093411;28;20028;-59
2023/04/16 08:51:35;;;;;;;37.80;27.63;;;;;;;8.98;100.00;102272.69;5093275;28;20024;-59
2023/04/16 08:54:18;;;;;;;44.13;27.58;;;;;;;9.05;100.00;102279.50;5094506;28;20030;-59
2023/04/16 08:56:43;;;;;;;39.00;25.88;;;;;;;9.05;100.00;102271.56;5093641;28;20024;-59
2023/04/16 08:59:09;;;;;;;36.60;25.33;;;;;;;9.00;100.00;102266.41;5093366;28;20436;-59
2023/04/16 09:01:35;;;;;;;38.10;25.85;;;;;;;9.03;100.00;102273.38;5089951;28;20491;-59
2023/04/16 09:04:01;;;;;;;44.45;28.05;;;;;;;9.04;100.00;102275.13;5091868;28;20035;-59
2023/04/16 09:06:27;;;;;;;40.30;26.40;;;;;;;9.06;100.00;102278.63;5090777;28;20055;-59
2023/04/16 09:08:53;;;;;;;36.42;25.38;;;;;;;9.05;100.00;102282.16;5092611;28;20115;-59
2023/04/16 09:11:19;;;;;;;41.65;26.48;;;;;;;8.99;100.00;102285.03;5091456;28;20038;-59
2023/04/16 09:13:45;;;;;;;39.00;26.27;;;;;;;8.99;100.00;102283.22;5096882;28;20478;-59
2023/04/16 09:16:12;;;;;;;35.78;26.52;;;;;;;9.02;100.00;102285.78;5097268;28;20059;-59
2023/04/16 09:18:37;;;;;;;35.25;25.50;;;;;;;9.16;100.00;102284.47;5094069;28;20425;-59
2023/04/16 09:21:03;;;;;;;39.65;25.73;;;;;;;9.20;100.00;102289.59;5092688;28;20032;-59
2023/04/16 09:23:29;;;;;;;38.22;26.00;;;;;;;9.20;100.00;102294.91;5094106;28;20068;-59
2023/04/16 09:25:57;;;;;;;40.33;25.77;;;;;;;9.23;100.00;102291.28;5092571;28;20040;-59
2023/04/16 09:28:42;;;;;;;45.65;26.23;;;;;;;9.22;100.00;102293.09;5093810;28;20023;-59
2023/04/16 09:31:08;;;;;;;39.03;26.67;;;;;;;9.09;100.00;102294.44;5072093;28;20499;-59
2023/04/16 09:33:35;;;;;;;40.75;25.23;;;;;;;9.09;100.00;102289.97;5083226;28;20026;-59
2023/04/16 09:36:01;;;;;;;36.95;26.73;;;;;;;9.09;100.00;102303.25;5091447;28;20024;-59
2023/04/16 09:38:44;;;;;;;45.80;27.20;;;;;;;9.13;100.00;102304.00;5091253;28;20106;-59
2023/04/16 09:41:15;;;;;;;39.97;25.08;;;;;;;9.09;100.00;102303.25;5095582;28;20419;-59
2023/04/16 09:43:40;;;;;;;41.70;25.88;;;;;;;9.17;100.00;102315.38;5105831;28;20020;-59
2023/04/16 09:46:06;;;;;;;40.90;25.55;;;;;;;9.18;100.00;102309.19;5096842;28;20024;-59
2023/04/16 09:48:32;;;;;;;38.33;25.88;;;;;;;9.20;100.00;102315.28;5111261;28;20024;-59
2023/04/16 09:50:59;;;;;;;37.42;25.65;;;;;;;9.26;100.00;102310.63;5112522;28;20020;-59
2023/04/16 09:53:28;;;;;;;43.15;25.67;;;;;;;9.30;100.00;102322.91;5111557;28;20035;-59
2023/04/16 09:55:57;;;;;;;42.45;25.75;;;;;;;9.27;100.00;102322.13;5109208;28;20027;-59
2023/04/16 09:58:23;;;;;;;39.75;25.10;;;;;;;9.19;100.00;102317.06;5094164;28;20032;-59
2023/04/16 10:00:54;;;;;;;37.17;25.70;;;;;;;9.26;100.00;102320.38;5091319;28;20475;-59
2023/04/16 10:03:31;;;;;;;34.95;24.13;;;;;;;9.22;100.00;102319.63;5091924;28;20498;-59
2023/04/16 10:06:14;;;;;;;37.72;26.25;;;;;;;9.28;100.00;102327.38;5090889;28;20471;-59
2023/04/16 10:08:57;;;;;;;39.90;25.42;;;;;;;9.24;100.00;102328.41;5089991;28;20047;-59
2023/04/16 10:11:23;;;;;;;42.50;24.90;;;;;;;9.26;100.00;102328.34;5091690;28;20075;-59
2023/04/16 10:13:49;;;;;;;40.15;25.20;;;;;;;9.29;100.00;102329.13;5095513;28;20106;-59
2023/04/16 10:16:15;;;;;;;39.47;26.13;;;;;;;9.26;100.00;102328.34;5077239;28;20394;-59
2023/04/16 10:18:44;;;;;;;37.17;27.33;;;;;;;9.25;100.00;102332.78;5110178;28;20032;-59
2023/04/16 10:21:11;;;;;;;40.72;25.92;;;;;;;9.29;100.00;102322.94;5108534;28;20526;-60
2023/04/16 10:23:38;;;;;;;36.90;25.02;;;;;;;9.40;100.00;102323.44;5110794;28;20023;-59
2023/04/16 10:26:05;;;;;;;36.80;26.02;;;;;;;9.41;100.00;102319.00;5104558;28;20030;-59
2023/04/16 10:28:34;;;;;;;37.85;27.08;;;;;;;9.34;100.00;102318.34;5113289;28;20023;-59
2023/04/16 10:31:02;;;;;;;38.03;26.70;;;;;;;9.45;100.00;102329.47;5110773;28;20036;-59
2023/04/16 10:33:31;;;;;;;33.80;25.92;;;;;;;9.51;100.00;102331.06;5093393;28;20038;-59
2023/04/16 10:36:26;;;;;;;39.97;26.05;;;;;;;9.55;100.00;102338.84;5092485;28;20020;-59
2023/04/16 10:38:55;;;;;;;40.60;26.63;;;;;;;9.45;100.00;102339.22;5079134;28;20504;-59
2023/04/16 10:41:21;;;;;;;38.15;26.90;;;;;;;9.42;100.00;102339.34;5105252;28;20502;-59
2023/04/16 10:43:49;;;;;;;38.03;28.10;;;;;;;9.35;100.00;102338.66;5092419;28;20023;-59
2023/04/16 10:46:23;;;;;;;34.35;26.40;;;;;;;9.22;100.00;102338.22;5090536;28;20526;-59
2023/04/16 10:48:52;;;;;;;36.15;25.45;;;;;;;9.26;100.00;102328.34;5092068;28;20132;-59
2023/04/16 10:51:27;;;;;;;34.80;26.87;;;;;;;9.35;100.00;102341.31;5091135;28;20115;-59
2023/04/16 10:54:01;;;;;;;37.28;27.13;;;;;;;9.30;100.00;102343.28;5088845;28;20035;-59
2023/04/16 10:56:30;;;;;;;39.20;28.70;;;;;;;9.35;100.00;102338.66;5090527;28;20024;-59
2023/04/16 10:58:59;;;;;;;38.42;26.45;;;;;;;9.36;100.00;102335.09;5092090;28;20044;-59
2023/04/16 11:01:30;;;;;;;40.53;27.30;;;;;;;9.42;100.00;102331.38;5091381;28;20504;-59
2023/04/16 11:03:59;;;;;;;35.83;27.88;;;;;;;9.49;100.00;102346.16;5092163;28;20036;-59
2023/04/16 11:06:26;;;;;;;37.38;25.80;;;;;;;9.51;100.00;102345.19;5092045;28;20429;-59
2023/04/16 11:08:54;;;;;;;35.28;27.02;;;;;;;9.55;100.00;102336.19;5091841;28;20085;-59
2023/04/16 11:11:22;;;;;;;34.35;25.92;;;;;;;9.60;100.00;102337.84;5091733;28;20495;-59